Neotsu, OR

3:18 PM PDT on August 29, 2014 (GMT -0700)
Tillamook | Change Station
CLOSE
Current Station
Airport
Location: Tillamook,
Elevation: 36 ft
Nearby Weather Stations

Elev 36 ft 45.42 °N, 123.81 °W | Updated 3 minutes ago

Scattered Clouds
Scattered Clouds
70 °F
Feels Like 70 °F
N
6
Wind Variable Wind from WSW

Today
High -- | Low -- °F
--% Chance of Precip.
Yesterday
High -- | Low -- °F
Precip. -- in
6:34 AM 7:58 PM
Waxing Crescent, 17% visible
Pressure 30.03 in
Visibility 10.0 miles
Clouds Scattered Clouds 4800 ft
Dew Point 61 °F
Humidity 73%
Rainfall 0.00 in
Snow Depth Not available.
UV 5 out of 12
Pollen 3.30 out of 12
Air Quality Not available.
Flu Activity Not available.
METAR KTMK 292215Z AUTO 24005KT 10SM SCT048 21/16 A3003 RMK AO2

More Conditions Fewer Conditions

Pressure 30.03 in
Visibility 10.0 miles
Clouds Scattered Clouds 4800 ft
Dew Point 61 °F
Humidity 73%
Rainfall 0.00 in
Snow Depth Not available.
UV 5 out of 12
Pollen 3.30 out of 12
Air Quality Not available.
Flu Activity Not available.
METAR KTMK 292215Z AUTO 24005KT 10SM SCT048 21/16 A3003 RMK AO2

More Conditions Fewer Conditions

10-Day Weather Forecast

Almanac

Astronomy

Aug. 29, 2014 Rise Set
Actual Time 6:34 AM PDT 7:58 PM PDT
Civil Twilight 6:03 AM PDT 8:28 PM PDT
Nautical Twilight 5:27 AM PDT 9:05 PM PDT
Astronomical Twilight 4:47 AM PDT 9:44 PM PDT
Moon 10:41 AM PDT 9:46 PM PDT
Length of Visible Light 14h 24m
Length of Day
13h 23m
Tomorrow will be 3m 0s shorter.
Waxing Crescent, 17% of the Moon is Illuminated
Today
Waxing Crescent
Sep 2
First Quarter
Sep 8
Full
Sep 15
Last Quarter
Sep 24
New

Today's Extremes

State Highs State Lows

Community

WunderPhotos

Upload Photos

1,748,356 photos uploaded!

Nearby

Snow Depth

Station Depth Elevation
Saddle Mountain 2 in 3250 ft
Seine Creek 0 in 2000 ft
Daly Lake 0 in 3600 ft
Peavine Ridge 3 in 3500 ft
North Fork 1 in 3120 ft

Earthquake Activity

City Distance Mag. Time & Date
No recent earthquake activity has been reported nearby.
Minimum magnitude displayed is 2.5.

Coastal Water Temperatures

Place Temperature
South Beach, OR 52.0 °F
Charleston, OR 53.1 °F

Nearby Weather Stations